Time;durP1;ratioP1;P1;durP2;ratioP2;P2;SDS_P1;SDS_P2;PMS_P1;PMS_P2;Temp;Humidity;BMP_temperature;BMP_pressure;BME280_temperature;BME280_humidity;BME280_pressure;Samples;Min_cycle;Max_cycle;Signal;HPM_P1;HPM_P2
2023/08/15 00:01:01;;;;;;;111.90;3.03;;;25.80;56.20;;;;;;5060321;28;20207;-81
2023/08/15 00:03:26;;;;;;;112.17;3.10;;;25.70;56.40;;;;;;5062350;28;20184;-81
2023/08/15 00:05:52;;;;;;;113.00;3.90;;;26.00;54.20;;;;;;5061495;28;20768;-81
2023/08/15 00:08:18;;;;;;;113.23;3.90;;;26.20;53.20;;;;;;5055729;28;20191;-82
2023/08/15 00:10:44;;;;;;;112.80;3.67;;;26.00;54.50;;;;;;5042062;28;20666;-82
2023/08/15 00:13:09;;;;;;;112.70;3.80;;;25.80;55.40;;;;;;5056054;28;20182;-81
2023/08/15 00:15:35;;;;;;;111.90;3.00;;;25.70;55.90;;;;;;5058849;28;20179;-82
2023/08/15 00:18:01;;;;;;;112.43;3.43;;;25.60;56.90;;;;;;5059692;28;20785;-81
2023/08/15 00:20:26;;;;;;;112.30;3.30;;;25.70;55.60;;;;;;5062523;28;20183;-81
2023/08/15 00:22:52;;;;;;;112.27;3.43;;;25.70;56.10;;;;;;5062481;28;20988;-81
2023/08/15 00:25:18;;;;;;;112.63;3.70;;;25.50;57.10;;;;;;5057575;28;20196;-83
2023/08/15 00:27:43;;;;;;;112.17;3.17;;;25.50;56.60;;;;;;5053315;28;20222;-81
2023/08/15 00:30:09;;;;;;;112.27;3.23;;;25.40;57.10;;;;;;5051441;28;20238;-81
2023/08/15 00:32:38;;;;;;;112.67;3.50;;;25.40;58.40;;;;;;5058069;28;20199;-81
2023/08/15 00:35:04;;;;;;;113.07;3.60;;;25.30;58.40;;;;;;5062218;28;20270;-81
2023/08/15 00:37:31;;;;;;;112.37;3.47;;;25.40;57.60;;;;;;5056523;28;20426;-82
2023/08/15 00:39:57;;;;;;;112.67;3.27;;;25.40;57.30;;;;;;5051121;28;21028;-81
2023/08/15 00:42:22;;;;;;;114.30;3.97;;;25.10;59.80;;;;;;5050724;28;20493;-81
2023/08/15 00:44:48;;;;;;;112.67;3.47;;;25.00;62.20;;;;;;5046534;28;20699;-81
2023/08/15 00:47:13;;;;;;;112.57;3.43;;;25.20;59.90;;;;;;5056801;28;20212;-81
2023/08/15 00:49:41;;;;;;;112.60;3.57;;;25.30;59.90;;;;;;5060944;28;20177;-81
2023/08/15 00:52:07;;;;;;;112.60;3.37;;;25.30;59.70;;;;;;5061590;28;20226;-82
2023/08/15 00:54:33;;;;;;;112.70;3.17;;;25.60;58.10;;;;;;5056721;28;20429;-82
2023/08/15 00:56:59;;;;;;;112.77;3.20;;;25.70;57.00;;;;;;5057896;28;20184;-82
2023/08/15 00:59:25;;;;;;;112.50;3.37;;;25.50;57.70;;;;;;5052827;28;20466;-82
2023/08/15 01:01:50;;;;;;;112.00;3.27;;;25.50;58.00;;;;;;5054763;28;20207;-81
2023/08/15 01:04:17;;;;;;;115.60;3.30;;;25.70;56.70;;;;;;5056929;28;20177;-81
2023/08/15 01:06:42;;;;;;;112.77;3.57;;;25.80;55.70;;;;;;5056963;28;20236;-81
2023/08/15 01:09:08;;;;;;;112.50;3.30;;;25.70;56.60;;;;;;5053461;28;20481;-82
2023/08/15 01:11:44;;;;;;;112.83;3.63;;;25.60;57.20;;;;;;5055592;28;20215;-81
2023/08/15 01:14:15;;;;;;;113.20;3.50;;;25.40;58.30;;;;;;5056044;28;20198;-82
2023/08/15 01:16:43;;;;;;;112.80;3.20;;;25.50;57.80;;;;;;5063199;28;20417;-81
2023/08/15 01:19:24;;;;;;;112.80;3.43;;;25.40;58.00;;;;;;5062879;28;20410;-83
2023/08/15 01:21:54;;;;;;;112.27;3.37;;;25.50;57.60;;;;;;5061357;28;20513;-83
2023/08/15 01:24:20;;;;;;;113.07;3.20;;;25.40;57.40;;;;;;5062788;28;20763;-81
2023/08/15 01:26:46;;;;;;;112.97;3.43;;;25.30;58.00;;;;;;5063345;28;20421;-83
2023/08/15 01:29:11;;;;;;;113.20;3.67;;;25.40;58.00;;;;;;5061466;28;21061;-82
2023/08/15 01:31:46;;;;;;;113.10;3.70;;;25.40;57.10;;;;;;5056625;28;20558;-82
2023/08/15 01:34:22;;;;;;;112.87;3.53;;;25.30;58.00;;;;;;5062476;28;20239;-83
2023/08/15 01:37:00;;;;;;;113.30;3.77;;;25.40;57.10;;;;;;5061446;28;20488;-82
2023/08/15 01:39:29;;;;;;;113.53;3.97;;;24.90;59.10;;;;;;5057212;28;20921;-82
2023/08/15 01:41:59;;;;;;;113.30;3.90;;;24.30;63.40;;;;;;5053139;28;20984;-82
2023/08/15 01:44:25;;;;;;;113.60;3.40;;;24.60;63.80;;;;;;5058802;28;20489;-83
2023/08/15 01:46:51;;;;;;;113.70;3.60;;;25.00;60.40;;;;;;5062247;28;20406;-81
2023/08/15 01:49:16;;;;;;;112.43;3.20;;;25.40;57.90;;;;;;5057603;28;20813;-82
2023/08/15 01:51:42;;;;;;;112.43;2.97;;;25.10;58.10;;;;;;5054147;28;20219;-81
2023/08/15 01:54:08;;;;;;;112.97;3.53;;;25.20;59.00;;;;;;5053842;28;20187;-82
2023/08/15 01:56:34;;;;;;;112.80;3.20;;;25.40;57.50;;;;;;5058868;28;20233;-82
2023/08/15 01:58:59;;;;;;;112.57;3.00;;;25.40;57.70;;;;;;5060350;28;20580;-82
2023/08/15 02:01:25;;;;;;;112.93;3.37;;;25.30;56.50;;;;;;5055700;28;20203;-82
2023/08/15 02:03:50;;;;;;;112.60;3.10;;;25.00;57.50;;;;;;5051293;28;20181;-82
2023/08/15 02:06:16;;;;;;;113.13;3.37;;;24.40;61.90;;;;;;5037355;28;20232;-82
2023/08/15 02:08:42;;;;;;;112.10;2.70;;;23.90;66.60;;;;;;5045855;28;20184;-81
2023/08/15 02:11:07;;;;;;;112.70;3.10;;;24.40;64.70;;;;;;5062150;28;20214;-81
2023/08/15 02:13:33;;;;;;;112.70;3.07;;;24.70;62.10;;;;;;5060148;28;20200;-81
2023/08/15 02:16:00;;;;;;;114.17;3.50;;;24.80;60.60;;;;;;5062270;28;20274;-81
2023/08/15 02:18:32;;;;;;;113.10;3.30;;;24.90;58.80;;;;;;5060808;28;20958;-81
2023/08/15 02:20:57;;;;;;;112.50;2.83;;;25.10;58.40;;;;;;5054993;28;20444;-82
2023/08/15 02:23:23;;;;;;;113.27;3.70;;;25.20;57.30;;;;;;5063228;28;20982;-82
2023/08/15 02:25:49;;;;;;;113.00;3.20;;;25.30;55.90;;;;;;5062996;28;20435;-82
2023/08/15 02:28:15;;;;;;;113.20;3.60;;;25.30;56.00;;;;;;5045314;28;20269;-82
2023/08/15 02:30:40;;;;;;;113.20;3.50;;;25.10;57.10;;;;;;5058274;28;20259;-81
2023/08/15 02:33:07;;;;;;;113.30;3.53;;;25.00;57.30;;;;;;5054656;28;20186;-82
2023/08/15 02:35:33;;;;;;;113.20;3.23;;;25.20;57.90;;;;;;5062772;28;20239;-81
2023/08/15 02:37:59;;;;;;;113.07;3.27;;;24.90;57.60;;;;;;5062783;28;20406;-81
2023/08/15 02:40:26;;;;;;;113.37;3.40;;;24.90;57.70;;;;;;5063714;28;20448;-82
2023/08/15 02:42:52;;;;;;;113.10;3.37;;;24.90;57.30;;;;;;5055642;28;20230;-81
2023/08/15 02:45:18;;;;;;;112.80;3.10;;;24.80;57.70;;;;;;5062565;28;20817;-81
2023/08/15 02:47:44;;;;;;;113.37;3.57;;;24.80;57.60;;;;;;5063285;28;20528;-82
2023/08/15 02:50:11;;;;;;;113.80;3.60;;;24.70;58.20;;;;;;5060004;28;20203;-81
2023/08/15 02:52:36;;;;;;;113.73;3.67;;;24.80;57.60;;;;;;5055705;28;20445;-81
2023/08/15 02:55:02;;;;;;;113.53;3.60;;;24.90;57.70;;;;;;5058999;28;20423;-82
2023/08/15 02:57:28;;;;;;;113.10;3.30;;;24.90;58.00;;;;;;5053359;28;20197;-82
2023/08/15 02:59:54;;;;;;;112.70;3.00;;;25.10;56.40;;;;;;5054494;28;20202;-81
2023/08/15 03:02:19;;;;;;;113.50;3.50;;;25.00;57.20;;;;;;5055073;28;20497;-82
2023/08/15 03:04:45;;;;;;;113.70;3.50;;;25.30;55.40;;;;;;5056362;28;20197;-82
2023/08/15 03:07:11;;;;;;;114.50;4.17;;;24.90;56.60;;;;;;5057899;28;20274;-81
2023/08/15 03:09:36;;;;;;;121.03;4.00;;;24.80;57.00;;;;;;5057783;28;20251;-81
2023/08/15 03:12:02;;;;;;;113.27;3.43;;;24.70;57.40;;;;;;5062949;28;20200;-82
2023/08/15 03:14:29;;;;;;;113.67;3.57;;;24.70;57.20;;;;;;5057055;28;20211;-81
2023/08/15 03:16:54;;;;;;;113.20;3.40;;;24.70;56.90;;;;;;5043549;28;20207;-82
2023/08/15 03:19:20;;;;;;;113.50;3.50;;;24.60;57.90;;;;;;5056342;28;20430;-82
2023/08/15 03:21:46;;;;;;;113.07;3.17;;;24.50;58.00;;;;;;5039451;28;20211;-81
2023/08/15 03:24:12;;;;;;;113.67;3.63;;;24.40;60.60;;;;;;5055883;28;20193;-82
2023/08/15 03:26:37;;;;;;;113.30;3.33;;;24.40;60.00;;;;;;5054644;28;20175;-81
2023/08/15 03:29:04;;;;;;;113.40;3.60;;;24.60;57.80;;;;;;5062354;28;20178;-82
2023/08/15 03:31:29;;;;;;;113.60;3.60;;;24.50;58.00;;;;;;5061346;28;20199;-81
2023/08/15 03:33:55;;;;;;;114.47;3.97;;;24.40;58.20;;;;;;5058052;28;20422;-81
2023/08/15 03:36:21;;;;;;;113.60;3.13;;;24.60;58.10;;;;;;5035234;28;20182;-82
2023/08/15 03:38:47;;;;;;;113.50;3.50;;;24.80;57.00;;;;;;5055600;28;20187;-83
2023/08/15 03:41:12;;;;;;;113.40;3.60;;;24.70;57.60;;;;;;5053037;28;20670;-82
2023/08/15 03:43:38;;;;;;;113.40;3.30;;;24.60;57.70;;;;;;5055490;28;20251;-82
2023/08/15 03:46:06;;;;;;;113.57;3.40;;;24.70;58.00;;;;;;5060249;28;20180;-83
2023/08/15 03:48:32;;;;;;;113.63;3.50;;;24.70;58.10;;;;;;5059554;28;20187;-82
2023/08/15 03:51:00;;;;;;;114.47;3.87;;;24.60;58.10;;;;;;5056619;28;20479;-83
2023/08/15 03:53:26;;;;;;;113.13;3.17;;;24.80;57.40;;;;;;5059619;28;20427;-82
2023/08/15 03:55:54;;;;;;;113.83;3.47;;;24.70;58.30;;;;;;5053895;28;20508;-83
2023/08/15 03:58:20;;;;;;;113.60;3.40;;;24.80;58.70;;;;;;5042798;28;20457;-83
2023/08/15 04:00:46;;;;;;;113.27;3.23;;;24.90;57.30;;;;;;5089350;22;20497;-75
2023/08/15 04:03:12;;;;;;;113.80;3.70;;;24.80;57.50;;;;;;5043175;28;20433;-76
2023/08/15 04:05:38;;;;;;;114.07;3.47;;;24.60;58.90;;;;;;5041502;28;20992;-76
2023/08/15 04:08:04;;;;;;;113.57;3.37;;;24.80;57.30;;;;;;5047141;28;20460;-76
2023/08/15 04:10:30;;;;;;;113.50;3.37;;;24.70;57.80;;;;;;5048635;28;20219;-76
2023/08/15 04:12:56;;;;;;;113.80;3.70;;;24.70;57.50;;;;;;5040952;28;20425;-76
2023/08/15 04:15:22;;;;;;;113.43;3.20;;;24.70;58.30;;;;;;5045482;28;20746;-76
2023/08/15 04:17:47;;;;;;;113.90;3.60;;;24.90;56.00;;;;;;5051168;28;20413;-76
2023/08/15 04:20:13;;;;;;;113.50;3.30;;;25.00;55.70;;;;;;5051319;28;20553;-76
2023/08/15 04:22:39;;;;;;;113.60;3.37;;;24.90;56.10;;;;;;5051407;28;20611;-76
2023/08/15 04:25:09;;;;;;;113.30;3.50;;;24.60;57.30;;;;;;5051228;28;20211;-76
2023/08/15 04:27:36;;;;;;;113.93;3.67;;;24.50;57.80;;;;;;5051269;28;20548;-76
2023/08/15 04:30:03;;;;;;;113.67;3.70;;;24.40;57.70;;;;;;5046733;28;20478;-76
2023/08/15 04:32:28;;;;;;;113.57;3.20;;;24.40;58.50;;;;;;5041204;28;20533;-76
2023/08/15 04:34:54;;;;;;;113.67;3.47;;;24.40;59.30;;;;;;5042237;28;20514;-76
2023/08/15 04:37:19;;;;;;;113.57;3.20;;;24.30;59.30;;;;;;5041933;28;20191;-76
2023/08/15 04:39:45;;;;;;;115.00;4.00;;;24.40;59.40;;;;;;5045429;28;20205;-76
2023/08/15 04:42:11;;;;;;;114.40;3.70;;;24.70;60.10;;;;;;5041254;28;20194;-75
2023/08/15 04:44:36;;;;;;;114.33;3.60;;;24.30;60.20;;;;;;5040534;28;20544;-76
2023/08/15 04:47:02;;;;;;;114.07;3.63;;;24.70;58.10;;;;;;5042118;28;20184;-76
2023/08/15 04:49:27;;;;;;;113.90;3.77;;;24.70;58.30;;;;;;5053050;28;20508;-76
2023/08/15 04:51:53;;;;;;;115.30;3.60;;;24.60;58.00;;;;;;5047584;28;20283;-76
2023/08/15 04:54:18;;;;;;;115.17;4.03;;;23.90;62.90;;;;;;5041755;28;20188;-76
2023/08/15 04:56:44;;;;;;;113.60;3.20;;;23.90;64.00;;;;;;5044432;28;20243;-76
2023/08/15 04:59:09;;;;;;;113.87;3.40;;;24.20;63.30;;;;;;5047493;28;20301;-75
2023/08/15 05:01:35;;;;;;;113.57;3.30;;;24.40;61.70;;;;;;5049969;28;20242;-75
2023/08/15 05:04:00;;;;;;;113.57;3.50;;;24.50;61.20;;;;;;5043681;28;20180;-75
2023/08/15 05:06:26;;;;;;;113.13;3.23;;;24.90;58.40;;;;;;5049543;28;20271;-75
2023/08/15 05:08:51;;;;;;;113.47;3.30;;;24.90;57.60;;;;;;5045406;28;20191;-75
2023/08/15 05:11:17;;;;;;;113.60;3.40;;;24.80;58.90;;;;;;5045797;28;20583;-75
2023/08/15 05:13:43;;;;;;;114.60;3.80;;;24.80;59.00;;;;;;5043611;28;20559;-75
2023/08/15 05:16:08;;;;;;;113.40;3.03;;;24.80;59.20;;;;;;5054141;28;20186;-75
2023/08/15 05:18:34;;;;;;;114.10;3.93;;;24.80;59.00;;;;;;5043445;28;20199;-75
2023/08/15 05:21:00;;;;;;;113.50;3.30;;;24.90;58.70;;;;;;5045098;28;20708;-75
2023/08/15 05:23:25;;;;;;;115.10;3.73;;;24.80;59.40;;;;;;5047337;28;20191;-75
2023/08/15 05:25:51;;;;;;;113.80;3.50;;;24.80;59.40;;;;;;5047674;28;20194;-75
2023/08/15 05:28:16;;;;;;;113.77;3.60;;;24.80;59.50;;;;;;5049536;28;20269;-75
2023/08/15 05:30:43;;;;;;;113.87;3.53;;;24.90;59.60;;;;;;5036893;28;20225;-75
2023/08/15 05:33:08;;;;;;;113.77;3.33;;;24.90;59.50;;;;;;5051013;28;20202;-75
2023/08/15 05:35:34;;;;;;;114.80;3.73;;;25.00;58.50;;;;;;5049517;28;20924;-75
2023/08/15 05:37:59;;;;;;;114.47;3.90;;;25.30;56.40;;;;;;5054208;28;20669;-76
2023/08/15 05:40:26;;;;;;;114.00;3.70;;;25.30;56.90;;;;;;5048907;28;20294;-75
2023/08/15 05:42:51;;;;;;;116.47;3.80;;;25.20;58.50;;;;;;5053996;28;20659;-75
2023/08/15 05:45:17;;;;;;;113.47;3.23;;;24.90;58.50;;;;;;5053659;28;20507;-75
2023/08/15 05:47:43;;;;;;;114.03;3.67;;;24.60;62.00;;;;;;5046417;28;20186;-75
2023/08/15 05:50:09;;;;;;;113.97;3.67;;;24.50;61.40;;;;;;5053559;28;20211;-75
2023/08/15 05:52:34;;;;;;;113.57;3.30;;;24.30;63.90;;;;;;5026738;28;20188;-75
2023/08/15 05:55:00;;;;;;;113.90;3.93;;;24.30;64.10;;;;;;5045678;28;20418;-77
2023/08/15 05:57:26;;;;;;;114.60;3.87;;;24.30;64.30;;;;;;5048367;28;20649;-75
2023/08/15 05:59:52;;;;;;;113.77;3.70;;;24.30;64.80;;;;;;5050018;28;20187;-75
2023/08/15 06:02:18;;;;;;;113.87;3.60;;;24.50;63.00;;;;;;5034952;28;20186;-75
2023/08/15 06:04:44;;;;;;;114.30;4.20;;;24.30;64.00;;;;;;5043912;28;20896;-75
2023/08/15 06:07:12;;;;;;;113.67;3.30;;;24.30;64.80;;;;;;5051002;28;20979;-75
2023/08/15 06:09:38;;;;;;;113.60;3.43;;;24.20;65.80;;;;;;5046285;28;20502;-75
2023/08/15 06:12:04;;;;;;;115.13;4.00;;;24.20;65.40;;;;;;5034624;28;20918;-75
2023/08/15 06:14:29;;;;;;;113.63;3.47;;;26.50;65.80;;;;;;5045989;28;20426;-76
2023/08/15 06:16:55;;;;;;;114.47;3.70;;;24.10;66.00;;;;;;5031549;28;20270;-75
2023/08/15 06:19:21;;;;;;;114.37;3.70;;;24.20;65.20;;;;;;5019218;28;20191;-75
2023/08/15 06:21:46;;;;;;;113.97;3.33;;;24.10;65.40;;;;;;5044057;28;20200;-76
2023/08/15 06:24:12;;;;;;;113.50;3.30;;;24.30;64.60;;;;;;5045375;28;20650;-75
2023/08/15 06:26:39;;;;;;;113.93;3.57;;;24.70;62.70;;;;;;5047147;28;20202;-75
2023/08/15 06:29:05;;;;;;;114.03;3.80;;;24.40;62.70;;;;;;5044308;28;20453;-74
2023/08/15 06:31:35;;;;;;;114.23;3.87;;;24.30;63.00;;;;;;5042089;28;20480;-75
2023/08/15 06:34:02;;;;;;;115.27;4.33;;;24.00;65.10;;;;;;5042251;28;20675;-74
2023/08/15 06:36:28;;;;;;;114.57;3.67;;;24.30;63.00;;;;;;5046363;28;20438;-74
2023/08/15 06:38:54;;;;;;;113.97;3.60;;;24.60;62.10;;;;;;5048905;28;20426;-75
2023/08/15 06:41:19;;;;;;;114.17;3.60;;;25.10;61.40;;;;;;5052738;28;20450;-75
2023/08/15 06:43:45;;;;;;;114.17;3.83;;;25.10;58.60;;;;;;5045530;28;20195;-76
2023/08/15 06:46:11;;;;;;;113.80;3.80;;;25.60;57.50;;;;;;5052671;28;20270;-75
2023/08/15 06:48:37;;;;;;;113.73;3.40;;;25.50;56.30;;;;;;5048855;28;20525;-76
2023/08/15 06:51:03;;;;;;;114.00;3.80;;;25.30;56.20;;;;;;5045015;28;20215;-76
2023/08/15 06:53:30;;;;;;;114.97;3.90;;;25.40;56.50;;;;;;5045399;28;20434;-75
2023/08/15 06:55:55;;;;;;;114.37;4.00;;;25.40;57.10;;;;;;5048632;28;20206;-75
2023/08/15 06:58:21;;;;;;;114.17;3.57;;;25.90;55.40;;;;;;5052413;28;20449;-75
2023/08/15 07:00:47;;;;;;;114.27;3.67;;;26.00;53.00;;;;;;5061906;28;20499;-75
2023/08/15 07:03:16;;;;;;;113.87;3.60;;;25.90;52.90;;;;;;5048656;28;20237;-75
2023/08/15 07:05:43;;;;;;;113.93;3.50;;;25.30;57.30;;;;;;5024821;28;20266;-75
2023/08/15 07:08:08;;;;;;;113.60;3.47;;;25.00;60.00;;;;;;5043790;28;20476;-75
2023/08/15 07:10:35;;;;;;;114.17;3.40;;;24.80;62.30;;;;;;5041028;28;20477;-75
2023/08/15 07:13:01;;;;;;;114.30;3.40;;;24.90;60.90;;;;;;5059890;28;20638;-75
2023/08/15 07:15:26;;;;;;;113.20;3.33;;;25.00;60.90;;;;;;5063593;28;20490;-75
2023/08/15 07:17:52;;;;;;;112.97;3.33;;;24.80;62.30;;;;;;5072392;28;20210;-75
2023/08/15 07:20:17;;;;;;;113.07;3.43;;;24.70;62.20;;;;;;5053542;28;20199;-75
2023/08/15 07:22:43;;;;;;;113.10;3.10;;;24.70;64.00;;;;;;5053941;28;20340;-74
2023/08/15 07:25:10;;;;;;;112.67;3.07;;;24.60;65.00;;;;;;5046954;28;20187;-75
2023/08/15 07:27:36;;;;;;;112.70;3.40;;;24.40;67.40;;;;;;5052000;28;20905;-76
2023/08/15 07:30:02;;;;;;;112.30;3.13;;;25.00;63.70;;;;;;5046686;28;20495;-76
2023/08/15 07:32:28;;;;;;;112.97;3.63;;;25.40;60.50;;;;;;5049647;28;20325;-75
2023/08/15 07:34:55;;;;;;;112.50;3.50;;;25.50;59.10;;;;;;5050157;28;20241;-76
2023/08/15 07:37:20;;;;;;;113.07;3.33;;;25.10;61.40;;;;;;5029969;28;20457;-75
2023/08/15 07:39:57;;;;;;;112.53;3.40;;;25.10;62.50;;;;;;5033414;28;20430;-77
2023/08/15 07:42:22;;;;;;;112.40;3.17;;;25.10;62.50;;;;;;5033895;28;20588;-75
2023/08/15 07:44:48;;;;;;;111.97;2.90;;;24.80;63.70;;;;;;5055327;28;20427;-75
2023/08/15 07:47:14;;;;;;;112.37;3.13;;;25.10;62.50;;;;;;5045989;28;20186;-75
2023/08/15 07:49:39;;;;;;;112.87;3.53;;;25.20;61.00;;;;;;5071824;28;20178;-75
2023/08/15 07:52:05;;;;;;;113.20;3.53;;;25.30;60.20;;;;;;5054288;28;20225;-76
2023/08/15 07:54:30;;;;;;;112.57;3.40;;;25.20;60.90;;;;;;5071437;28;20275;-76
2023/08/15 07:56:56;;;;;;;113.43;3.70;;;26.00;57.60;;;;;;5063972;28;20183;-75
2023/08/15 07:59:22;;;;;;;112.87;3.90;;;26.40;56.90;;;;;;5072112;28;20258;-75
2023/08/15 08:01:48;;;;;;;112.53;3.50;;;26.70;57.10;;;;;;5071984;28;20210;-75
2023/08/15 08:04:14;;;;;;;113.37;3.30;;;27.10;52.10;;;;;;5071686;28;20175;-75
2023/08/15 08:06:39;;;;;;;151.43;4.83;;;27.10;51.70;;;;;;5053660;28;20179;-75
2023/08/15 08:09:05;;;;;;;112.30;3.37;;;26.70;55.70;;;;;;5059930;28;20575;-75
2023/08/15 08:11:31;;;;;;;112.27;3.27;;;26.90;56.80;;;;;;5051079;28;20219;-76
2023/08/15 08:13:57;;;;;;;112.30;3.40;;;27.00;54.00;;;;;;5059410;28;20417;-75
2023/08/15 08:16:22;;;;;;;112.77;3.27;;;27.40;51.60;;;;;;5046324;28;20191;-75
2023/08/15 08:18:48;;;;;;;112.67;3.63;;;27.10;52.20;;;;;;5062917;28;20197;-75
2023/08/15 08:21:14;;;;;;;112.47;3.50;;;27.30;52.40;;;;;;5051501;28;20240;-75
2023/08/15 08:23:39;;;;;;;113.90;4.43;;;27.50;53.50;;;;;;5051651;28;20175;-77
2023/08/15 08:26:05;;;;;;;112.00;3.23;;;27.60;53.10;;;;;;5048360;28;20696;-76
2023/08/15 08:28:30;;;;;;;113.87;3.83;;;27.60;50.60;;;;;;5060509;28;20195;-76
2023/08/15 08:30:57;;;;;;;112.77;3.40;;;27.60;53.00;;;;;;5062925;28;20206;-76
2023/08/15 08:33:23;;;;;;;112.90;3.60;;;27.60;53.20;;;;;;5071758;28;20221;-76
2023/08/15 08:35:49;;;;;;;113.07;3.43;;;28.00;52.30;;;;;;5067327;28;20418;-75
2023/08/15 08:38:14;;;;;;;112.97;3.53;;;28.20;50.80;;;;;;5059671;28;20179;-76
2023/08/15 08:40:41;;;;;;;112.40;3.43;;;28.30;51.80;;;;;;5071007;28;20214;-77
2023/08/15 08:43:09;;;;;;;113.17;3.70;;;28.40;49.50;;;;;;5065324;28;20653;-76
2023/08/15 08:45:38;;;;;;;112.27;3.13;;;28.60;49.80;;;;;;5051171;28;20449;-76
2023/08/15 08:48:08;;;;;;;112.37;3.43;;;28.70;48.90;;;;;;5059719;28;20827;-76
2023/08/15 08:50:34;;;;;;;112.70;3.50;;;28.80;49.00;;;;;;5070228;28;20507;-76
2023/08/15 08:53:00;;;;;;;112.27;3.30;;;29.00;49.70;;;;;;5071670;28;20866;-75
2023/08/15 08:55:27;;;;;;;111.77;2.73;;;28.90;45.50;;;;;;5052840;28;20461;-76
2023/08/15 08:57:53;;;;;;;111.63;2.73;;;28.70;45.90;;;;;;5071547;28;20186;-76
2023/08/15 09:00:24;;;;;;;113.13;3.30;;;28.90;45.90;;;;;;5052535;28;20869;-76
2023/08/15 09:02:51;;;;;;;112.37;3.33;;;29.00;45.00;;;;;;5041835;28;20418;-75
2023/08/15 09:05:16;;;;;;;111.60;3.17;;;29.10;40.80;;;;;;5059057;28;20428;-76
2023/08/15 09:07:42;;;;;;;112.07;3.13;;;28.90;40.20;;;;;;5063253;28;20417;-76
2023/08/15 09:10:08;;;;;;;111.67;3.20;;;29.00;41.70;;;;;;5070755;28;20195;-76
2023/08/15 09:12:38;;;;;;;112.07;3.20;;;29.20;37.80;;;;;;5071472;28;20203;-76
2023/08/15 09:15:09;;;;;;;112.47;3.17;;;29.20;37.50;;;;;;5070876;28;20167;-76
2023/08/15 09:17:35;;;;;;;111.70;3.07;;;29.20;37.40;;;;;;5062007;28;20424;-76
2023/08/15 09:20:27;;;;;;;110.80;2.70;;;29.50;37.40;;;;;;5050967;28;20433;-76
2023/08/15 09:22:56;;;;;;;111.77;3.67;;;29.70;38.20;;;;;;5051619;28;20433;-76
2023/08/15 09:25:25;;;;;;;111.00;2.80;;;29.50;35.50;;;;;;5044478;28;20434;-76
2023/08/15 09:27:50;;;;;;;110.80;3.00;;;29.60;34.50;;;;;;5071231;28;20466;-76
2023/08/15 09:30:17;;;;;;;111.53;3.37;;;29.70;37.80;;;;;;5070732;28;20456;-75
2023/08/15 09:32:44;;;;;;;110.83;3.00;;;29.80;37.10;;;;;;5071194;28;20171;-76
2023/08/15 09:35:11;;;;;;;110.93;2.97;;;29.90;37.80;;;;;;5072736;28;20414;-76
2023/08/15 09:37:47;;;;;;;110.50;2.90;;;30.10;33.80;;;;;;5074842;28;20445;-75
2023/08/15 09:40:18;;;;;;;110.23;2.73;;;29.50;32.80;;;;;;5074298;28;20486;-76
2023/08/15 09:42:44;;;;;;;110.53;3.10;;;29.60;30.80;;;;;;5074538;28;20920;-76
2023/08/15 09:45:13;;;;;;;110.37;3.03;;;29.70;31.10;;;;;;5074262;28;20424;-76
2023/08/15 09:47:39;;;;;;;109.97;2.80;;;29.40;30.10;;;;;;5056648;28;20421;-76
2023/08/15 09:50:09;;;;;;;109.80;2.90;;;29.80;29.10;;;;;;5074452;28;20460;-75
2023/08/15 09:52:40;;;;;;;110.83;2.90;;;29.90;29.10;;;;;;5074291;28;20496;-76
2023/08/15 09:55:10;;;;;;;109.40;2.83;;;30.20;28.30;;;;;;5074181;28;20416;-76
2023/08/15 09:57:40;;;;;;;109.47;2.83;;;30.10;26.70;;;;;;5074297;28;20401;-76
2023/08/15 10:00:17;;;;;;;108.60;2.47;;;30.30;26.30;;;;;;5074302;28;20449;-75
2023/08/15 10:03:06;;;;;;;108.70;2.80;;;30.10;24.70;;;;;;5074371;28;20923;-75
2023/08/15 10:05:33;;;;;;;108.17;2.60;;;29.90;25.70;;;;;;5073114;28;20805;-76
2023/08/15 10:07:59;;;;;;;108.00;3.00;;;30.40;26.30;;;;;;5074481;28;20413;-76
2023/08/15 10:10:27;;;;;;;107.27;2.30;;;30.70;25.00;;;;;;5055733;28;20521;-75
2023/08/15 10:12:54;;;;;;;107.10;2.50;;;30.80;24.50;;;;;;5074127;28;20254;-76
2023/08/15 10:15:21;;;;;;;106.87;2.67;;;30.70;27.00;;;;;;5073865;28;20417;-76
2023/08/15 10:17:48;;;;;;;107.20;2.60;;;30.90;24.50;;;;;;5063479;28;20422;-76
2023/08/15 10:20:18;;;;;;;106.57;2.50;;;30.90;24.90;;;;;;5053771;28;20433;-76
2023/08/15 10:22:43;;;;;;;106.53;2.70;;;31.00;25.10;;;;;;5053646;28;20435;-76
2023/08/15 10:25:24;;;;;;;106.00;2.40;;;31.00;25.00;;;;;;5053798;28;20956;-76
2023/08/15 10:27:52;;;;;;;106.07;2.37;;;31.10;24.20;;;;;;5053380;28;20178;-75
2023/08/15 10:30:36;;;;;;;105.97;2.40;;;30.80;24.20;;;;;;5051553;28;20479;-76
2023/08/15 10:33:12;;;;;;;106.37;2.80;;;30.70;24.40;;;;;;5053727;28;20497;-76
2023/08/15 10:35:41;;;;;;;105.90;2.40;;;30.80;27.80;;;;;;5053768;28;20766;-76
2023/08/15 10:38:15;;;;;;;106.10;2.70;;;30.80;24.10;;;;;;5053316;28;20414;-76
2023/08/15 10:40:43;;;;;;;105.87;2.67;;;31.20;24.60;;;;;;5051496;28;20479;-76
2023/08/15 10:43:11;;;;;;;106.87;3.20;;;31.80;24.40;;;;;;5049721;28;20500;-76
2023/08/15 10:45:37;;;;;;;105.67;2.43;;;32.20;23.30;;;;;;5057119;28;21026;-75
2023/08/15 10:48:03;;;;;;;105.87;2.60;;;31.30;22.40;;;;;;5063081;28;20972;-76
2023/08/15 10:50:29;;;;;;;105.90;2.87;;;30.50;24.90;;;;;;5054528;28;20613;-76
2023/08/15 10:53:03;;;;;;;106.87;2.83;;;30.50;24.40;;;;;;5053871;28;20437;-76
2023/08/15 10:55:33;;;;;;;105.70;2.60;;;30.60;24.40;;;;;;5051976;28;20537;-76
2023/08/15 10:58:03;;;;;;;105.40;2.50;;;31.00;24.10;;;;;;5055846;28;20409;-76
2023/08/15 11:00:30;;;;;;;105.87;2.63;;;31.30;23.00;;;;;;5060802;28;20908;-76
2023/08/15 11:02:57;;;;;;;105.17;2.50;;;31.30;24.40;;;;;;5054779;28;20530;-75
2023/08/15 11:05:22;;;;;;;106.20;2.87;;;30.70;24.70;;;;;;5056120;28;20531;-76
2023/08/15 11:07:48;;;;;;;111.80;3.27;;;31.20;24.50;;;;;;5057032;28;20880;-75
2023/08/15 11:10:14;;;;;;;105.83;2.97;;;31.40;23.50;;;;;;5060275;28;20213;-76
2023/08/15 11:12:58;;;;;;;105.20;2.57;;;30.90;24.70;;;;;;5061788;28;20540;-75
2023/08/15 11:15:23;;;;;;;105.17;2.53;;;29.80;24.40;;;;;;5055751;28;20955;-75
2023/08/15 11:17:50;;;;;;;105.37;2.63;;;29.40;24.80;;;;;;5050472;28;20429;-75
2023/08/15 11:20:15;;;;;;;105.17;2.67;;;29.60;25.60;;;;;;5054541;28;20585;-76
2023/08/15 11:22:41;;;;;;;104.80;2.60;;;30.30;25.70;;;;;;5051305;28;20425;-75
2023/08/15 11:25:08;;;;;;;104.87;2.13;;;30.90;26.70;;;;;;5047582;28;20175;-75
2023/08/15 11:27:45;;;;;;;104.77;2.40;;;31.30;23.20;;;;;;5045252;28;20180;-75
2023/08/15 11:30:11;;;;;;;104.97;2.60;;;31.00;23.40;;;;;;5063660;28;20539;-75
2023/08/15 11:32:40;;;;;;;105.43;2.80;;;31.20;23.60;;;;;;5046005;28;20944;-75
2023/08/15 11:35:07;;;;;;;104.10;2.20;;;31.60;21.80;;;;;;5049755;28;20479;-75
2023/08/15 11:37:33;;;;;;;103.47;2.07;;;31.20;22.10;;;;;;5063739;28;20417;-75
2023/08/15 11:39:59;;;;;;;103.87;2.30;;;31.10;22.00;;;;;;5066451;28;20542;-75
2023/08/15 11:42:25;;;;;;;104.03;2.30;;;30.90;22.60;;;;;;5072281;28;20964;-75
2023/08/15 11:45:11;;;;;;;103.60;2.23;;;31.20;22.80;;;;;;5072253;28;20194;-75
2023/08/15 11:47:54;;;;;;;103.37;1.90;;;31.00;22.40;;;;;;5072766;28;20316;-75
2023/08/15 11:50:20;;;;;;;103.60;2.17;;;31.10;21.70;;;;;;5072469;28;20457;-75
2023/08/15 11:52:46;;;;;;;103.60;2.10;;;31.20;22.50;;;;;;5072183;28;20416;-75
2023/08/15 11:55:15;;;;;;;103.47;2.10;;;32.20;22.70;;;;;;5053968;28;20179;-74
2023/08/15 11:57:40;;;;;;;103.40;2.20;;;31.40;21.70;;;;;;5047569;28;20806;-76
2023/08/15 12:00:07;;;;;;;103.60;2.20;;;31.60;22.20;;;;;;5048502;28;20547;-75
2023/08/15 12:02:42;;;;;;;102.77;2.00;;;31.30;22.50;;;;;;5047429;28;20237;-76
2023/08/15 12:07:33;;;;;;;102.87;2.20;;;31.60;21.30;;;;;;5076854;22;20494;-84
2023/08/15 12:10:00;;;;;;;104.20;2.50;;;31.50;21.80;;;;;;5071522;28;20175;-84
2023/08/15 12:12:25;;;;;;;105.20;2.60;;;31.30;22.60;;;;;;5071671;28;20167;-83
2023/08/15 12:14:51;;;;;;;103.07;2.50;;;31.60;22.00;;;;;;5072128;28;20435;-83
2023/08/15 12:17:16;;;;;;;102.90;2.10;;;31.50;22.20;;;;;;5071952;28;20186;-83
2023/08/15 12:19:42;;;;;;;102.77;2.10;;;31.70;20.80;;;;;;5071736;28;20179;-83
2023/08/15 12:22:07;;;;;;;103.17;2.10;;;31.90;22.10;;;;;;5053892;28;20243;-83
2023/08/15 12:24:33;;;;;;;103.33;2.20;;;32.40;20.10;;;;;;5071504;28;20198;-84
2023/08/15 12:26:58;;;;;;;102.37;2.13;;;32.80;20.20;;;;;;5071717;28;20255;-84
2023/08/15 12:29:24;;;;;;;102.27;2.00;;;32.00;20.70;;;;;;5071603;28;20175;-83